sensor_id;sensor_type;location;lat;lon;timestamp;P1;durP1;ratioP1;P2;durP2;ratioP2
29358;SDS011;16347;53.232;6.556;2023-05-20T00:00:27;15.10;;;4.50;;
29358;SDS011;16347;53.232;6.556;2023-05-20T00:02:55;13.35;;;4.72;;
29358;SDS011;16347;53.232;6.556;2023-05-20T00:05:25;13.65;;;4.65;;
29358;SDS011;16347;53.232;6.556;2023-05-20T00:07:54;14.48;;;4.03;;
29358;SDS011;16347;53.232;6.556;2023-05-20T00:10:23;9.80;;;3.90;;
29358;SDS011;16347;53.232;6.556;2023-05-20T00:12:50;20.67;;;4.32;;
29358;SDS011;16347;53.232;6.556;2023-05-20T00:15:18;16.33;;;4.35;;
29358;SDS011;16347;53.232;6.556;2023-05-20T00:17:46;12.40;;;4.90;;
29358;SDS011;16347;53.232;6.556;2023-05-20T00:20:14;14.10;;;4.13;;
29358;SDS011;16347;53.232;6.556;2023-05-20T00:22:42;19.40;;;4.85;;
29358;SDS011;16347;53.232;6.556;2023-05-20T00:25:11;13.98;;;4.13;;
29358;SDS011;16347;53.232;6.556;2023-05-20T00:27:40;15.77;;;4.63;;
29358;SDS011;16347;53.232;6.556;2023-05-20T00:30:08;14.23;;;4.22;;
29358;SDS011;16347;53.232;6.556;2023-05-20T00:32:36;14.57;;;4.10;;
29358;SDS011;16347;53.232;6.556;2023-05-20T00:35:05;19.30;;;4.55;;
29358;SDS011;16347;53.232;6.556;2023-05-20T00:37:34;17.13;;;4.95;;
29358;SDS011;16347;53.232;6.556;2023-05-20T00:40:03;15.77;;;3.88;;
29358;SDS011;16347;53.232;6.556;2023-05-20T00:42:33;18.90;;;4.20;;
29358;SDS011;16347;53.232;6.556;2023-05-20T00:45:01;12.25;;;4.05;;
29358;SDS011;16347;53.232;6.556;2023-05-20T00:47:30;13.27;;;4.18;;
29358;SDS011;16347;53.232;6.556;2023-05-20T00:50:00;10.50;;;4.03;;
29358;SDS011;16347;53.232;6.556;2023-05-20T00:52:28;15.35;;;4.25;;
29358;SDS011;16347;53.232;6.556;2023-05-20T00:54:58;13.25;;;3.90;;
29358;SDS011;16347;53.232;6.556;2023-05-20T00:57:26;15.82;;;4.15;;
29358;SDS011;16347;53.232;6.556;2023-05-20T00:59:56;11.93;;;4.28;;
29358;SDS011;16347;53.232;6.556;2023-05-20T01:02:24;17.90;;;4.70;;
29358;SDS011;16347;53.232;6.556;2023-05-20T01:04:52;12.85;;;4.45;;
29358;SDS011;16347;53.232;6.556;2023-05-20T01:07:22;14.02;;;4.10;;
29358;SDS011;16347;53.232;6.556;2023-05-20T01:09:50;10.50;;;3.80;;
29358;SDS011;16347;53.232;6.556;2023-05-20T01:12:21;18.98;;;4.60;;
29358;SDS011;16347;53.232;6.556;2023-05-20T01:14:53;15.45;;;4.25;;
29358;SDS011;16347;53.232;6.556;2023-05-20T01:17:26;19.47;;;4.80;;
29358;SDS011;16347;53.232;6.556;2023-05-20T01:20:00;11.70;;;4.00;;
29358;SDS011;16347;53.232;6.556;2023-05-20T01:22:30;11.73;;;3.88;;
29358;SDS011;16347;53.232;6.556;2023-05-20T01:24:58;10.23;;;4.05;;
29358;SDS011;16347;53.232;6.556;2023-05-20T01:27:28;13.98;;;4.72;;
29358;SDS011;16347;53.232;6.556;2023-05-20T01:29:56;12.93;;;3.83;;
29358;SDS011;16347;53.232;6.556;2023-05-20T01:32:25;18.55;;;4.35;;
29358;SDS011;16347;53.232;6.556;2023-05-20T01:34:58;10.80;;;4.13;;
29358;SDS011;16347;53.232;6.556;2023-05-20T01:37:26;15.85;;;4.22;;
29358;SDS011;16347;53.232;6.556;2023-05-20T01:39:56;12.25;;;3.58;;
29358;SDS011;16347;53.232;6.556;2023-05-20T01:42:25;8.40;;;4.03;;
29358;SDS011;16347;53.232;6.556;2023-05-20T01:44:55;10.20;;;3.72;;
29358;SDS011;16347;53.232;6.556;2023-05-20T01:47:25;13.43;;;4.13;;
29358;SDS011;16347;53.232;6.556;2023-05-20T01:49:53;16.75;;;4.57;;
29358;SDS011;16347;53.232;6.556;2023-05-20T01:52:21;11.10;;;3.78;;
29358;SDS011;16347;53.232;6.556;2023-05-20T01:54:49;9.82;;;4.20;;
29358;SDS011;16347;53.232;6.556;2023-05-20T01:57:19;17.38;;;4.22;;
29358;SDS011;16347;53.232;6.556;2023-05-20T01:59:48;10.80;;;4.47;;
29358;SDS011;16347;53.232;6.556;2023-05-20T02:02:17;10.90;;;4.75;;
29358;SDS011;16347;53.232;6.556;2023-05-20T02:04:45;9.27;;;4.15;;
29358;SDS011;16347;53.232;6.556;2023-05-20T02:07:15;13.70;;;3.90;;
29358;SDS011;16347;53.232;6.556;2023-05-20T02:09:44;14.43;;;3.90;;
29358;SDS011;16347;53.232;6.556;2023-05-20T02:12:12;12.55;;;4.07;;
29358;SDS011;16347;53.232;6.556;2023-05-20T02:14:44;14.80;;;4.30;;
29358;SDS011;16347;53.232;6.556;2023-05-20T02:17:14;10.73;;;3.90;;
29358;SDS011;16347;53.232;6.556;2023-05-20T02:19:43;11.80;;;3.88;;
29358;SDS011;16347;53.232;6.556;2023-05-20T02:22:11;9.13;;;3.58;;
29358;SDS011;16347;53.232;6.556;2023-05-20T02:24:42;11.25;;;3.75;;
29358;SDS011;16347;53.232;6.556;2023-05-20T02:27:09;13.50;;;4.40;;
29358;SDS011;16347;53.232;6.556;2023-05-20T02:29:38;13.88;;;3.90;;
29358;SDS011;16347;53.232;6.556;2023-05-20T02:32:07;8.65;;;4.10;;
29358;SDS011;16347;53.232;6.556;2023-05-20T02:34:35;17.90;;;4.70;;
29358;SDS011;16347;53.232;6.556;2023-05-20T02:37:03;10.75;;;3.97;;
29358;SDS011;16347;53.232;6.556;2023-05-20T02:39:31;10.70;;;3.97;;
29358;SDS011;16347;53.232;6.556;2023-05-20T02:41:59;11.18;;;3.92;;
29358;SDS011;16347;53.232;6.556;2023-05-20T02:44:27;11.20;;;3.90;;
29358;SDS011;16347;53.232;6.556;2023-05-20T02:46:55;6.78;;;3.65;;
29358;SDS011;16347;53.232;6.556;2023-05-20T02:49:25;13.23;;;4.38;;
29358;SDS011;16347;53.232;6.556;2023-05-20T02:51:53;9.73;;;3.35;;
29358;SDS011;16347;53.232;6.556;2023-05-20T02:54:22;10.65;;;3.45;;
29358;SDS011;16347;53.232;6.556;2023-05-20T02:56:50;11.00;;;3.92;;
29358;SDS011;16347;53.232;6.556;2023-05-20T02:59:18;8.90;;;3.50;;
29358;SDS011;16347;53.232;6.556;2023-05-20T03:01:46;10.40;;;3.50;;
29358;SDS011;16347;53.232;6.556;2023-05-20T03:04:14;9.23;;;3.45;;
29358;SDS011;16347;53.232;6.556;2023-05-20T03:06:46;15.38;;;4.18;;
29358;SDS011;16347;53.232;6.556;2023-05-20T03:09:14;14.10;;;3.60;;
29358;SDS011;16347;53.232;6.556;2023-05-20T03:11:42;10.85;;;3.92;;
29358;SDS011;16347;53.232;6.556;2023-05-20T03:14:10;7.43;;;3.30;;
29358;SDS011;16347;53.232;6.556;2023-05-20T03:16:38;11.10;;;3.40;;
29358;SDS011;16347;53.232;6.556;2023-05-20T03:19:06;12.98;;;3.35;;
29358;SDS011;16347;53.232;6.556;2023-05-20T03:21:34;9.45;;;3.30;;
29358;SDS011;16347;53.232;6.556;2023-05-20T03:24:04;10.52;;;3.05;;
29358;SDS011;16347;53.232;6.556;2023-05-20T03:26:32;8.07;;;2.90;;
29358;SDS011;16347;53.232;6.556;2023-05-20T03:29:04;6.55;;;3.00;;
29358;SDS011;16347;53.232;6.556;2023-05-20T03:31:32;5.47;;;2.67;;
29358;SDS011;16347;53.232;6.556;2023-05-20T03:34:00;7.07;;;3.10;;
29358;SDS011;16347;53.232;6.556;2023-05-20T03:36:28;6.72;;;3.05;;
29358;SDS011;16347;53.232;6.556;2023-05-20T03:38:56;12.40;;;3.20;;
29358;SDS011;16347;53.232;6.556;2023-05-20T03:41:26;9.80;;;3.35;;
29358;SDS011;16347;53.232;6.556;2023-05-20T03:43:54;9.82;;;2.85;;
29358;SDS011;16347;53.232;6.556;2023-05-20T03:46:23;5.15;;;2.47;;
29358;SDS011;16347;53.232;6.556;2023-05-20T03:48:51;6.30;;;2.60;;
29358;SDS011;16347;53.232;6.556;2023-05-20T03:51:19;7.43;;;3.00;;
29358;SDS011;16347;53.232;6.556;2023-05-20T03:53:48;12.27;;;3.65;;
29358;SDS011;16347;53.232;6.556;2023-05-20T03:56:16;6.15;;;2.28;;
29358;SDS011;16347;53.232;6.556;2023-05-20T03:58:45;8.15;;;2.55;;
29358;SDS011;16347;53.232;6.556;2023-05-20T04:01:13;7.72;;;3.13;;
29358;SDS011;16347;53.232;6.556;2023-05-20T04:03:41;3.42;;;1.83;;
29358;SDS011;16347;53.232;6.556;2023-05-20T04:06:09;6.25;;;2.10;;
29358;SDS011;16347;53.232;6.556;2023-05-20T04:08:37;7.53;;;2.38;;
29358;SDS011;16347;53.232;6.556;2023-05-20T04:11:05;8.27;;;2.40;;
29358;SDS011;16347;53.232;6.556;2023-05-20T04:13:33;6.82;;;2.40;;
29358;SDS011;16347;53.232;6.556;2023-05-20T04:16:03;5.43;;;2.15;;
29358;SDS011;16347;53.232;6.556;2023-05-20T04:18:31;7.05;;;2.60;;
29358;SDS011;16347;53.232;6.556;2023-05-20T04:21:04;7.87;;;2.30;;
29358;SDS011;16347;53.232;6.556;2023-05-20T04:23:33;9.77;;;3.13;;
29358;SDS011;16347;53.232;6.556;2023-05-20T04:26:01;6.75;;;2.40;;
29358;SDS011;16347;53.232;6.556;2023-05-20T04:28:30;5.63;;;2.10;;
29358;SDS011;16347;53.232;6.556;2023-05-20T04:30:59;7.43;;;2.40;;
29358;SDS011;16347;53.232;6.556;2023-05-20T04:33:29;6.68;;;2.38;;
29358;SDS011;16347;53.232;6.556;2023-05-20T04:35:59;5.38;;;1.85;;
29358;SDS011;16347;53.232;6.556;2023-05-20T04:38:28;5.43;;;2.42;;
29358;SDS011;16347;53.232;6.556;2023-05-20T04:40:59;4.35;;;2.33;;
29358;SDS011;16347;53.232;6.556;2023-05-20T04:43:27;4.82;;;2.28;;
29358;SDS011;16347;53.232;6.556;2023-05-20T04:45:57;6.45;;;1.95;;
29358;SDS011;16347;53.232;6.556;2023-05-20T04:48:26;5.63;;;2.25;;
29358;SDS011;16347;53.232;6.556;2023-05-20T04:50:56;7.40;;;1.83;;
29358;SDS011;16347;53.232;6.556;2023-05-20T04:53:24;3.47;;;2.28;;
29358;SDS011;16347;53.232;6.556;2023-05-20T04:55:53;5.70;;;2.30;;
29358;SDS011;16347;53.232;6.556;2023-05-20T04:58:22;4.65;;;1.73;;
29358;SDS011;16347;53.232;6.556;2023-05-20T05:00:51;3.45;;;1.85;;
29358;SDS011;16347;53.232;6.556;2023-05-20T05:03:19;8.65;;;2.35;;
29358;SDS011;16347;53.232;6.556;2023-05-20T05:05:47;3.08;;;1.92;;
29358;SDS011;16347;53.232;6.556;2023-05-20T05:08:17;6.80;;;2.50;;
29358;SDS011;16347;53.232;6.556;2023-05-20T05:10:49;5.22;;;2.00;;
29358;SDS011;16347;53.232;6.556;2023-05-20T05:13:16;5.07;;;1.63;;
29358;SDS011;16347;53.232;6.556;2023-05-20T05:15:44;5.07;;;1.77;;
29358;SDS011;16347;53.232;6.556;2023-05-20T05:18:12;6.95;;;1.63;;
29358;SDS011;16347;53.232;6.556;2023-05-20T05:20:43;4.95;;;2.20;;
29358;SDS011;16347;53.232;6.556;2023-05-20T05:23:11;3.35;;;1.60;;
29358;SDS011;16347;53.232;6.556;2023-05-20T05:25:41;5.45;;;2.00;;
29358;SDS011;16347;53.232;6.556;2023-05-20T05:28:09;3.97;;;1.60;;
29358;SDS011;16347;53.232;6.556;2023-05-20T05:30:37;2.22;;;1.42;;
29358;SDS011;16347;53.232;6.556;2023-05-20T05:33:05;3.63;;;1.70;;
29358;SDS011;16347;53.232;6.556;2023-05-20T05:35:33;5.78;;;1.75;;
29358;SDS011;16347;53.232;6.556;2023-05-20T05:38:01;3.38;;;2.05;;
29358;SDS011;16347;53.232;6.556;2023-05-20T05:40:29;2.50;;;1.67;;
29358;SDS011;16347;53.232;6.556;2023-05-20T05:42:58;2.28;;;1.35;;
29358;SDS011;16347;53.232;6.556;2023-05-20T05:45:27;3.20;;;1.70;;
29358;SDS011;16347;53.232;6.556;2023-05-20T05:47:55;3.78;;;1.40;;
29358;SDS011;16347;53.232;6.556;2023-05-20T05:50:24;4.60;;;1.60;;
29358;SDS011;16347;53.232;6.556;2023-05-20T05:52:52;2.88;;;1.30;;
29358;SDS011;16347;53.232;6.556;2023-05-20T05:55:21;5.00;;;1.50;;
29358;SDS011;16347;53.232;6.556;2023-05-20T05:57:49;4.15;;;1.70;;
29358;SDS011;16347;53.232;6.556;2023-05-20T06:00:19;2.55;;;1.67;;
29358;SDS011;16347;53.232;6.556;2023-05-20T06:02:47;6.95;;;2.42;;
29358;SDS011;16347;53.232;6.556;2023-05-20T06:05:30;5.43;;;1.47;;
29358;SDS011;16347;53.232;6.556;2023-05-20T06:07:59;4.80;;;1.70;;
29358;SDS011;16347;53.232;6.556;2023-05-20T06:10:28;7.75;;;1.70;;
29358;SDS011;16347;53.232;6.556;2023-05-20T06:12:56;6.95;;;1.63;;
29358;SDS011;16347;53.232;6.556;2023-05-20T06:15:26;3.50;;;1.60;;
29358;SDS011;16347;53.232;6.556;2023-05-20T06:17:55;4.15;;;1.55;;
29358;SDS011;16347;53.232;6.556;2023-05-20T06:20:24;3.40;;;1.40;;
29358;SDS011;16347;53.232;6.556;2023-05-20T06:22:52;2.20;;;1.25;;
29358;SDS011;16347;53.232;6.556;2023-05-20T06:25:23;3.80;;;1.33;;
29358;SDS011;16347;53.232;6.556;2023-05-20T06:27:51;6.70;;;1.70;;
29358;SDS011;16347;53.232;6.556;2023-05-20T06:30:20;7.63;;;1.40;;
29358;SDS011;16347;53.232;6.556;2023-05-20T06:32:50;3.95;;;1.35;;
29358;SDS011;16347;53.232;6.556;2023-05-20T06:35:18;7.45;;;1.30;;
29358;SDS011;16347;53.232;6.556;2023-05-20T06:37:46;4.07;;;1.50;;
29358;SDS011;16347;53.232;6.556;2023-05-20T06:40:15;2.95;;;1.25;;
29358;SDS011;16347;53.232;6.556;2023-05-20T06:42:43;3.47;;;1.58;;
29358;SDS011;16347;53.232;6.556;2023-05-20T06:45:12;3.78;;;1.30;;
29358;SDS011;16347;53.232;6.556;2023-05-20T06:47:42;8.20;;;2.15;;
29358;SDS011;16347;53.232;6.556;2023-05-20T06:50:12;2.28;;;1.27;;
29358;SDS011;16347;53.232;6.556;2023-05-20T06:52:39;8.38;;;1.27;;
29358;SDS011;16347;53.232;6.556;2023-05-20T06:55:08;1.98;;;1.30;;
29358;SDS011;16347;53.232;6.556;2023-05-20T06:57:36;7.65;;;1.60;;
29358;SDS011;16347;53.232;6.556;2023-05-20T07:00:05;2.33;;;1.38;;
29358;SDS011;16347;53.232;6.556;2023-05-20T07:02:38;4.18;;;1.70;;
29358;SDS011;16347;53.232;6.556;2023-05-20T07:05:07;7.72;;;1.88;;
29358;SDS011;16347;53.232;6.556;2023-05-20T07:07:37;5.20;;;1.45;;
29358;SDS011;16347;53.232;6.556;2023-05-20T07:10:05;3.22;;;1.35;;
29358;SDS011;16347;53.232;6.556;2023-05-20T07:12:34;4.07;;;1.17;;
29358;SDS011;16347;53.232;6.556;2023-05-20T07:15:03;4.38;;;1.50;;
29358;SDS011;16347;53.232;6.556;2023-05-20T07:17:32;3.08;;;1.55;;
29358;SDS011;16347;53.232;6.556;2023-05-20T07:20:00;5.63;;;1.67;;
29358;SDS011;16347;53.232;6.556;2023-05-20T07:22:30;7.28;;;1.50;;
29358;SDS011;16347;53.232;6.556;2023-05-20T07:25:11;3.13;;;1.10;;
29358;SDS011;16347;53.232;6.556;2023-05-20T07:27:39;6.20;;;1.73;;
29358;SDS011;16347;53.232;6.556;2023-05-20T07:30:07;9.05;;;1.92;;
29358;SDS011;16347;53.232;6.556;2023-05-20T07:32:37;4.00;;;1.10;;
29358;SDS011;16347;53.232;6.556;2023-05-20T07:35:08;7.68;;;1.58;;
29358;SDS011;16347;53.232;6.556;2023-05-20T07:37:36;3.60;;;1.75;;
29358;SDS011;16347;53.232;6.556;2023-05-20T07:40:05;3.80;;;1.70;;
29358;SDS011;16347;53.232;6.556;2023-05-20T07:42:38;3.25;;;1.38;;
29358;SDS011;16347;53.232;6.556;2023-05-20T07:45:06;3.45;;;1.65;;
29358;SDS011;16347;53.232;6.556;2023-05-20T07:47:35;10.27;;;1.67;;
29358;SDS011;16347;53.232;6.556;2023-05-20T07:50:04;6.60;;;1.50;;
29358;SDS011;16347;53.232;6.556;2023-05-20T07:52:35;1.48;;;1.27;;
29358;SDS011;16347;53.232;6.556;2023-05-20T07:55:22;2.95;;;1.63;;
29358;SDS011;16347;53.232;6.556;2023-05-20T07:57:52;2.15;;;1.40;;
29358;SDS011;16347;53.232;6.556;2023-05-20T08:00:21;4.88;;;2.20;;
29358;SDS011;16347;53.232;6.556;2023-05-20T08:02:49;3.13;;;1.77;;
29358;SDS011;16347;53.232;6.556;2023-05-20T08:05:24;5.50;;;2.08;;
29358;SDS011;16347;53.232;6.556;2023-05-20T08:07:52;11.00;;;1.98;;
29358;SDS011;16347;53.232;6.556;2023-05-20T08:10:23;5.72;;;1.83;;
29358;SDS011;16347;53.232;6.556;2023-05-20T08:12:53;4.10;;;1.40;;
29358;SDS011;16347;53.232;6.556;2023-05-20T08:15:21;3.97;;;1.52;;
29358;SDS011;16347;53.232;6.556;2023-05-20T08:17:49;6.30;;;1.52;;
29358;SDS011;16347;53.232;6.556;2023-05-20T08:20:17;6.15;;;2.03;;
29358;SDS011;16347;53.232;6.556;2023-05-20T08:22:46;2.22;;;1.58;;
29358;SDS011;16347;53.232;6.556;2023-05-20T08:25:17;4.75;;;1.70;;
29358;SDS011;16347;53.232;6.556;2023-05-20T08:27:45;2.42;;;1.42;;
29358;SDS011;16347;53.232;6.556;2023-05-20T08:30:16;4.75;;;1.98;;
29358;SDS011;16347;53.232;6.556;2023-05-20T08:32:45;3.53;;;1.70;;
29358;SDS011;16347;53.232;6.556;2023-05-20T08:35:14;4.63;;;1.80;;
29358;SDS011;16347;53.232;6.556;2023-05-20T08:37:42;10.02;;;1.75;;
29358;SDS011;16347;53.232;6.556;2023-05-20T08:40:10;4.55;;;1.58;;
29358;SDS011;16347;53.232;6.556;2023-05-20T08:42:40;5.07;;;2.45;;
29358;SDS011;16347;53.232;6.556;2023-05-20T08:45:10;3.00;;;1.52;;
29358;SDS011;16347;53.232;6.556;2023-05-20T08:47:41;2.72;;;1.20;;
29358;SDS011;16347;53.232;6.556;2023-05-20T08:50:10;5.78;;;1.50;;
29358;SDS011;16347;53.232;6.556;2023-05-20T08:52:41;7.60;;;1.90;;
29358;SDS011;16347;53.232;6.556;2023-05-20T08:55:13;5.47;;;1.90;;
29358;SDS011;16347;53.232;6.556;2023-05-20T08:57:42;10.27;;;2.15;;
29358;SDS011;16347;53.232;6.556;2023-05-20T09:00:13;3.60;;;1.67;;
29358;SDS011;16347;53.232;6.556;2023-05-20T09:02:44;4.05;;;1.85;;
29358;SDS011;16347;53.232;6.556;2023-05-20T09:05:13;4.88;;;1.60;;
29358;SDS011;16347;53.232;6.556;2023-05-20T09:07:41;7.45;;;1.90;;
29358;SDS011;16347;53.232;6.556;2023-05-20T09:10:09;4.97;;;1.60;;
29358;SDS011;16347;53.232;6.556;2023-05-20T09:12:37;14.65;;;1.85;;
29358;SDS011;16347;53.232;6.556;2023-05-20T09:15:06;3.65;;;1.73;;
29358;SDS011;16347;53.232;6.556;2023-05-20T09:17:35;7.75;;;1.73;;
29358;SDS011;16347;53.232;6.556;2023-05-20T09:20:09;2.63;;;1.30;;
29358;SDS011;16347;53.232;6.556;2023-05-20T09:22:38;8.00;;;1.55;;
29358;SDS011;16347;53.232;6.556;2023-05-20T09:25:07;3.03;;;1.75;;
29358;SDS011;16347;53.232;6.556;2023-05-20T09:27:38;2.53;;;1.60;;
29358;SDS011;16347;53.232;6.556;2023-05-20T09:30:07;9.52;;;2.33;;
29358;SDS011;16347;53.232;6.556;2023-05-20T09:32:38;8.70;;;1.60;;
29358;SDS011;16347;53.232;6.556;2023-05-20T09:35:12;4.93;;;1.70;;
29358;SDS011;16347;53.232;6.556;2023-05-20T09:37:41;5.38;;;1.52;;
29358;SDS011;16347;53.232;6.556;2023-05-20T09:40:14;9.38;;;1.77;;
29358;SDS011;16347;53.232;6.556;2023-05-20T09:42:47;5.90;;;2.00;;
29358;SDS011;16347;53.232;6.556;2023-05-20T09:45:19;3.43;;;1.33;;
29358;SDS011;16347;53.232;6.556;2023-05-20T09:47:49;7.50;;;1.60;;
29358;SDS011;16347;53.232;6.556;2023-05-20T09:50:20;6.85;;;2.05;;
29358;SDS011;16347;53.232;6.556;2023-05-20T09:52:52;4.20;;;1.65;;
29358;SDS011;16347;53.232;6.556;2023-05-20T09:55:22;3.92;;;2.03;;
29358;SDS011;16347;53.232;6.556;2023-05-20T09:57:51;10.65;;;2.20;;
29358;SDS011;16347;53.232;6.556;2023-05-20T10:00:20;9.35;;;2.33;;
29358;SDS011;16347;53.232;6.556;2023-05-20T10:02:49;3.90;;;1.73;;
29358;SDS011;16347;53.232;6.556;2023-05-20T10:05:20;9.18;;;1.75;;
29358;SDS011;16347;53.232;6.556;2023-05-20T10:07:58;6.03;;;1.58;;
29358;SDS011;16347;53.232;6.556;2023-05-20T10:10:49;6.75;;;2.03;;
29358;SDS011;16347;53.232;6.556;2023-05-20T10:13:31;5.68;;;1.67;;
29358;SDS011;16347;53.232;6.556;2023-05-20T10:16:12;10.45;;;2.22;;
29358;SDS011;16347;53.232;6.556;2023-05-20T10:18:53;5.20;;;1.98;;
29358;SDS011;16347;53.232;6.556;2023-05-20T10:21:29;5.20;;;2.10;;
29358;SDS011;16347;53.232;6.556;2023-05-20T10:24:04;7.68;;;2.10;;
29358;SDS011;16347;53.232;6.556;2023-05-20T10:26:33;6.47;;;1.95;;
29358;SDS011;16347;53.232;6.556;2023-05-20T10:29:15;7.38;;;2.05;;
29358;SDS011;16347;53.232;6.556;2023-05-20T10:31:43;6.40;;;2.15;;
29358;SDS011;16347;53.232;6.556;2023-05-20T10:34:13;6.45;;;2.00;;
29358;SDS011;16347;53.232;6.556;2023-05-20T10:36:45;7.65;;;2.03;;
29358;SDS011;16347;53.232;6.556;2023-05-20T10:39:14;6.75;;;2.58;;
29358;SDS011;16347;53.232;6.556;2023-05-20T10:41:43;14.75;;;2.05;;
29358;SDS011;16347;53.232;6.556;2023-05-20T10:44:11;5.28;;;2.10;;
29358;SDS011;16347;53.232;6.556;2023-05-20T10:46:39;7.57;;;2.22;;
29358;SDS011;16347;53.232;6.556;2023-05-20T10:49:31;13.30;;;3.50;;
29358;SDS011;16347;53.232;6.556;2023-05-20T10:52:02;11.30;;;2.33;;
29358;SDS011;16347;53.232;6.556;2023-05-20T10:54:34;4.93;;;1.88;;
29358;SDS011;16347;53.232;6.556;2023-05-20T10:57:05;9.02;;;2.70;;
29358;SDS011;16347;53.232;6.556;2023-05-20T10:59:34;4.53;;;2.05;;
29358;SDS011;16347;53.232;6.556;2023-05-20T11:02:03;7.97;;;2.22;;
29358;SDS011;16347;53.232;6.556;2023-05-20T11:04:31;9.32;;;2.22;;
29358;SDS011;16347;53.232;6.556;2023-05-20T11:06:59;5.32;;;2.10;;
29358;SDS011;16347;53.232;6.556;2023-05-20T11:09:29;17.75;;;2.33;;
29358;SDS011;16347;53.232;6.556;2023-05-20T11:11:57;7.45;;;2.40;;
29358;SDS011;16347;53.232;6.556;2023-05-20T11:14:26;7.22;;;2.20;;
29358;SDS011;16347;53.232;6.556;2023-05-20T11:16:55;8.70;;;2.60;;
29358;SDS011;16347;53.232;6.556;2023-05-20T11:19:24;7.53;;;2.38;;
29358;SDS011;16347;53.232;6.556;2023-05-20T11:21:53;7.00;;;2.00;;
29358;SDS011;16347;53.232;6.556;2023-05-20T11:24:22;13.02;;;3.85;;
29358;SDS011;16347;53.232;6.556;2023-05-20T11:26:54;4.18;;;2.15;;
29358;SDS011;16347;53.232;6.556;2023-05-20T11:29:24;11.63;;;2.58;;
29358;SDS011;16347;53.232;6.556;2023-05-20T11:31:54;9.70;;;2.60;;
29358;SDS011;16347;53.232;6.556;2023-05-20T11:34:22;11.27;;;2.67;;
29358;SDS011;16347;53.232;6.556;2023-05-20T11:36:55;9.18;;;2.67;;
29358;SDS011;16347;53.232;6.556;2023-05-20T11:39:24;5.63;;;2.95;;
29358;SDS011;16347;53.232;6.556;2023-05-20T11:41:54;7.10;;;2.78;;
29358;SDS011;16347;53.232;6.556;2023-05-20T11:44:23;8.65;;;2.83;;
29358;SDS011;16347;53.232;6.556;2023-05-20T11:46:57;9.77;;;2.97;;
29358;SDS011;16347;53.232;6.556;2023-05-20T11:49:26;14.80;;;3.17;;
29358;SDS011;16347;53.232;6.556;2023-05-20T11:51:54;7.28;;;2.70;;
29358;SDS011;16347;53.232;6.556;2023-05-20T11:54:23;13.27;;;2.78;;
29358;SDS011;16347;53.232;6.556;2023-05-20T11:56:52;7.43;;;2.63;;
29358;SDS011;16347;53.232;6.556;2023-05-20T11:59:22;9.38;;;3.60;;
29358;SDS011;16347;53.232;6.556;2023-05-20T12:01:51;5.22;;;2.28;;
29358;SDS011;16347;53.232;6.556;2023-05-20T12:04:19;6.40;;;2.72;;
29358;SDS011;16347;53.232;6.556;2023-05-20T12:06:47;8.20;;;2.72;;
29358;SDS011;16347;53.232;6.556;2023-05-20T12:09:15;8.10;;;2.47;;
29358;SDS011;16347;53.232;6.556;2023-05-20T12:11:42;8.57;;;2.92;;
29358;SDS011;16347;53.232;6.556;2023-05-20T12:14:12;5.30;;;2.72;;
29358;SDS011;16347;53.232;6.556;2023-05-20T12:16:40;9.90;;;2.85;;
29358;SDS011;16347;53.232;6.556;2023-05-20T12:19:07;14.70;;;4.72;;
29358;SDS011;16347;53.232;6.556;2023-05-20T12:21:35;9.52;;;4.07;;
29358;SDS011;16347;53.232;6.556;2023-05-20T12:24:04;7.35;;;3.28;;
29358;SDS011;16347;53.232;6.556;2023-05-20T12:26:33;12.68;;;3.55;;
29358;SDS011;16347;53.232;6.556;2023-05-20T12:29:01;6.72;;;3.20;;
29358;SDS011;16347;53.232;6.556;2023-05-20T12:31:31;9.25;;;2.85;;
29358;SDS011;16347;53.232;6.556;2023-05-20T12:34:00;7.03;;;3.28;;
29358;SDS011;16347;53.232;6.556;2023-05-20T12:36:29;8.85;;;2.95;;
29358;SDS011;16347;53.232;6.556;2023-05-20T12:38:57;8.30;;;3.40;;
29358;SDS011;16347;53.232;6.556;2023-05-20T12:41:25;4.47;;;2.55;;
29358;SDS011;16347;53.232;6.556;2023-05-20T12:43:53;8.75;;;3.10;;
29358;SDS011;16347;53.232;6.556;2023-05-20T12:46:21;9.30;;;3.55;;
29358;SDS011;16347;53.232;6.556;2023-05-20T12:48:51;8.18;;;3.28;;
29358;SDS011;16347;53.232;6.556;2023-05-20T12:51:19;6.72;;;3.20;;
29358;SDS011;16347;53.232;6.556;2023-05-20T12:53:47;9.30;;;3.05;;
29358;SDS011;16347;53.232;6.556;2023-05-20T12:56:14;11.63;;;3.42;;
29358;SDS011;16347;53.232;6.556;2023-05-20T12:58:43;5.95;;;3.00;;
29358;SDS011;16347;53.232;6.556;2023-05-20T13:01:11;5.93;;;2.85;;
29358;SDS011;16347;53.232;6.556;2023-05-20T13:03:39;14.93;;;3.28;;
29358;SDS011;16347;53.232;6.556;2023-05-20T13:06:08;5.10;;;2.67;;
29358;SDS011;16347;53.232;6.556;2023-05-20T13:08:36;10.50;;;3.28;;
29358;SDS011;16347;53.232;6.556;2023-05-20T13:11:04;8.05;;;3.67;;
29358;SDS011;16347;53.232;6.556;2023-05-20T13:13:32;10.90;;;3.67;;
29358;SDS011;16347;53.232;6.556;2023-05-20T13:16:00;8.70;;;2.92;;
29358;SDS011;16347;53.232;6.556;2023-05-20T13:18:28;9.68;;;3.10;;
29358;SDS011;16347;53.232;6.556;2023-05-20T13:20:56;5.68;;;2.65;;
29358;SDS011;16347;53.232;6.556;2023-05-20T13:23:25;10.25;;;3.22;;
29358;SDS011;16347;53.232;6.556;2023-05-20T13:25:53;9.13;;;3.45;;
29358;SDS011;16347;53.232;6.556;2023-05-20T13:28:21;23.38;;;8.32;;
29358;SDS011;16347;53.232;6.556;2023-05-20T13:30:49;12.13;;;5.82;;
29358;SDS011;16347;53.232;6.556;2023-05-20T13:33:17;11.77;;;3.80;;
29358;SDS011;16347;53.232;6.556;2023-05-20T13:35:45;11.65;;;2.75;;
29358;SDS011;16347;53.232;6.556;2023-05-20T13:38:13;8.55;;;2.65;;
29358;SDS011;16347;53.232;6.556;2023-05-20T13:40:42;6.65;;;3.40;;
29358;SDS011;16347;53.232;6.556;2023-05-20T13:43:10;5.20;;;3.15;;
29358;SDS011;16347;53.232;6.556;2023-05-20T13:45:38;9.02;;;3.72;;
29358;SDS011;16347;53.232;6.556;2023-05-20T13:48:06;7.13;;;3.15;;
29358;SDS011;16347;53.232;6.556;2023-05-20T13:50:34;7.05;;;3.22;;
29358;SDS011;16347;53.232;6.556;2023-05-20T13:53:02;6.28;;;3.00;;
29358;SDS011;16347;53.232;6.556;2023-05-20T13:55:30;8.65;;;3.40;;
29358;SDS011;16347;53.232;6.556;2023-05-20T13:57:59;12.18;;;3.38;;
29358;SDS011;16347;53.232;6.556;2023-05-20T14:00:27;10.30;;;3.95;;
29358;SDS011;16347;53.232;6.556;2023-05-20T14:02:55;7.90;;;3.13;;
29358;SDS011;16347;53.232;6.556;2023-05-20T14:05:24;7.93;;;3.40;;
29358;SDS011;16347;53.232;6.556;2023-05-20T14:07:52;8.95;;;3.45;;
29358;SDS011;16347;53.232;6.556;2023-05-20T14:10:20;11.30;;;3.22;;
29358;SDS011;16347;53.232;6.556;2023-05-20T14:12:48;11.38;;;3.03;;
29358;SDS011;16347;53.232;6.556;2023-05-20T14:15:18;8.13;;;2.95;;
29358;SDS011;16347;53.232;6.556;2023-05-20T14:17:47;6.97;;;2.75;;
29358;SDS011;16347;53.232;6.556;2023-05-20T14:20:14;11.85;;;3.42;;
29358;SDS011;16347;53.232;6.556;2023-05-20T14:22:43;5.95;;;2.45;;
29358;SDS011;16347;53.232;6.556;2023-05-20T14:25:10;11.35;;;3.10;;
29358;SDS011;16347;53.232;6.556;2023-05-20T14:27:38;5.72;;;3.03;;
29358;SDS011;16347;53.232;6.556;2023-05-20T14:30:07;12.30;;;3.60;;
29358;SDS011;16347;53.232;6.556;2023-05-20T14:32:37;7.40;;;2.80;;
29358;SDS011;16347;53.232;6.556;2023-05-20T14:35:05;8.15;;;2.53;;
29358;SDS011;16347;53.232;6.556;2023-05-20T14:37:34;14.15;;;2.83;;
29358;SDS011;16347;53.232;6.556;2023-05-20T14:40:03;13.88;;;4.05;;
29358;SDS011;16347;53.232;6.556;2023-05-20T14:42:32;9.95;;;3.72;;
29358;SDS011;16347;53.232;6.556;2023-05-20T14:45:00;11.05;;;3.40;;
29358;SDS011;16347;53.232;6.556;2023-05-20T14:47:28;11.05;;;3.10;;
29358;SDS011;16347;53.232;6.556;2023-05-20T14:49:58;10.10;;;3.97;;
29358;SDS011;16347;53.232;6.556;2023-05-20T14:52:26;10.50;;;2.88;;
29358;SDS011;16347;53.232;6.556;2023-05-20T14:54:54;10.68;;;3.15;;